createdAt,value
2022-10-07T00:00:46.371Z,9.30
2022-10-07T00:03:13.092Z,9.68
2022-10-07T00:05:39.799Z,10.68
2022-10-07T00:08:06.548Z,10.02
2022-10-07T00:10:37.745Z,9.60
2022-10-07T00:13:04.671Z,9.38
2022-10-07T00:15:32.159Z,9.35
2022-10-07T00:17:58.784Z,9.80
2022-10-07T00:20:25.416Z,9.40
2022-10-07T00:22:53.570Z,9.85
2022-10-07T00:25:21.046Z,10.35
2022-10-07T00:27:47.802Z,9.95
2022-10-07T00:30:15.506Z,9.57
2022-10-07T00:32:42.061Z,10.20
2022-10-07T00:35:08.867Z,10.23
2022-10-07T00:37:36.565Z,10.43
2022-10-07T00:40:03.619Z,10.85
2022-10-07T00:42:30.991Z,10.40
2022-10-07T00:44:57.592Z,10.18
2022-10-07T00:47:34.184Z,10.38
2022-10-07T00:50:03.454Z,10.82
2022-10-07T00:52:33.707Z,10.25
2022-10-07T00:55:04.455Z,10.50
2022-10-07T00:57:32.285Z,10.48
2022-10-07T00:59:59.568Z,10.27
2022-10-07T01:02:27.570Z,10.23
2022-10-07T01:04:58.982Z,10.43
2022-10-07T01:07:27.154Z,10.53
2022-10-07T01:09:57.492Z,10.13
2022-10-07T01:12:38.335Z,10.30
2022-10-07T01:15:14.062Z,10.48
2022-10-07T01:18:09.331Z,10.05
2022-10-07T01:21:00.862Z,9.30
2022-10-07T01:23:36.533Z,10.25
2022-10-07T01:26:37.354Z,10.65
2022-10-07T01:29:27.495Z,10.32
2022-10-07T01:32:27.532Z,10.00
2022-10-07T01:34:57.020Z,9.52
2022-10-07T01:37:27.382Z,9.25
2022-10-07T01:39:58.740Z,9.68
2022-10-07T01:42:28.626Z,9.83
2022-10-07T01:44:58.768Z,10.82
2022-10-07T01:47:26.658Z,10.65
2022-10-07T01:49:53.162Z,10.63
2022-10-07T01:52:43.184Z,10.43
2022-10-07T01:55:15.895Z,9.88
2022-10-07T01:58:06.354Z,11.00
2022-10-07T02:00:42.416Z,11.10
2022-10-07T02:03:27.660Z,10.88
2022-10-07T02:06:03.226Z,11.60
2022-10-07T02:08:37.848Z,10.52
2022-10-07T02:11:13.308Z,10.93
2022-10-07T02:14:11.972Z,11.68
2022-10-07T02:16:48.496Z,10.82
2022-10-07T02:19:31.516Z,10.77
2022-10-07T02:22:02.060Z,10.77
2022-10-07T02:24:32.592Z,10.95
2022-10-07T02:27:03.536Z,10.85
2022-10-07T02:29:34.833Z,10.70
2022-10-07T02:32:04.768Z,11.38
2022-10-07T02:34:33.428Z,12.15
2022-10-07T02:37:07.581Z,11.40
2022-10-07T02:39:34.409Z,11.75
2022-10-07T02:42:37.184Z,12.25
2022-10-07T02:48:06.054Z,11.60
2022-10-07T02:50:40.067Z,11.50
2022-10-07T02:53:09.013Z,12.13
2022-10-07T02:55:36.171Z,12.55
2022-10-07T02:58:07.458Z,12.25
2022-10-07T03:00:37.353Z,12.38
2022-10-07T03:03:05.227Z,11.77
2022-10-07T03:05:34.859Z,11.63
2022-10-07T03:08:04.829Z,12.98
2022-10-07T03:10:31.936Z,13.50
2022-10-07T03:12:58.802Z,13.65
2022-10-07T03:15:25.805Z,13.27
2022-10-07T03:17:52.417Z,12.70
2022-10-07T03:20:19.088Z,12.18
2022-10-07T03:22:45.710Z,12.35
2022-10-07T03:25:14.101Z,12.20
2022-10-07T03:27:42.807Z,11.85
2022-10-07T03:30:10.681Z,11.48
2022-10-07T03:32:39.406Z,10.48
2022-10-07T03:35:06.452Z,10.48
2022-10-07T03:37:33.407Z,10.98
2022-10-07T03:39:59.996Z,10.95
2022-10-07T03:42:26.762Z,10.77
2022-10-07T03:44:53.247Z,11.93
2022-10-07T03:47:21.782Z,11.77
2022-10-07T03:49:48.355Z,12.50
2022-10-07T03:52:15.062Z,12.85
2022-10-07T03:54:41.770Z,13.65
2022-10-07T03:57:28.321Z,13.55
2022-10-07T03:59:55.004Z,17.05
2022-10-07T04:02:23.529Z,15.73
2022-10-07T04:04:53.322Z,17.48
2022-10-07T04:07:22.184Z,17.15
2022-10-07T04:09:49.105Z,17.65
2022-10-07T04:12:15.812Z,20.45
2022-10-07T04:14:42.464Z,21.25
2022-10-07T04:17:09.045Z,21.38
2022-10-07T04:19:37.189Z,20.38
2022-10-07T04:22:08.418Z,20.63
2022-10-07T04:24:35.797Z,20.80
2022-10-07T04:27:06.200Z,20.65
2022-10-07T04:29:38.160Z,22.00
2022-10-07T04:32:06.234Z,21.50
2022-10-07T04:34:32.747Z,21.05
2022-10-07T04:37:01.277Z,21.50
2022-10-07T04:39:49.084Z,22.35
2022-10-07T04:42:33.923Z,23.73
2022-10-07T04:45:00.515Z,24.60
2022-10-07T04:47:28.227Z,26.83
2022-10-07T04:49:55.205Z,27.58
2022-10-07T04:52:21.953Z,31.65
2022-10-07T04:54:48.601Z,31.20
2022-10-07T04:57:15.114Z,32.90
2022-10-07T04:59:43.043Z,31.65
2022-10-07T05:02:10.226Z,35.55
2022-10-07T05:04:37.106Z,34.95
2022-10-07T05:07:04.209Z,35.90
2022-10-07T05:09:30.962Z,37.80
2022-10-07T05:11:57.560Z,40.30
2022-10-07T05:14:24.310Z,41.25
2022-10-07T05:16:51.559Z,40.35
2022-10-07T05:19:18.758Z,39.35
2022-10-07T05:21:45.852Z,42.03
2022-10-07T05:24:12.444Z,41.00
2022-10-07T05:26:39.036Z,40.75
2022-10-07T05:29:06.969Z,39.33
2022-10-07T05:31:33.493Z,39.30
2022-10-07T05:34:00.470Z,39.72
2022-10-07T05:36:27.298Z,39.05
2022-10-07T05:38:57.974Z,40.97
2022-10-07T05:41:24.953Z,40.92
2022-10-07T05:43:51.518Z,40.38
2022-10-07T05:46:23.196Z,40.08
2022-10-07T05:48:51.851Z,38.90
2022-10-07T05:51:19.822Z,37.58
2022-10-07T05:53:46.950Z,37.22
2022-10-07T05:56:21.619Z,36.20
2022-10-07T05:58:49.469Z,35.75
2022-10-07T06:01:18.982Z,34.08
2022-10-07T06:03:50.941Z,34.10
2022-10-07T06:06:17.721Z,34.22
2022-10-07T06:08:44.635Z,33.88
2022-10-07T06:11:32.389Z,33.35
2022-10-07T06:13:59.719Z,33.25
2022-10-07T06:16:26.845Z,33.28
2022-10-07T06:18:54.323Z,33.83
2022-10-07T06:21:23.841Z,33.47
2022-10-07T06:23:52.113Z,33.28
2022-10-07T06:26:37.858Z,33.25
2022-10-07T06:29:04.566Z,33.60
2022-10-07T06:31:31.161Z,32.80
2022-10-07T06:33:57.712Z,32.90
2022-10-07T06:36:24.312Z,32.55
2022-10-07T06:38:53.445Z,34.35
2022-10-07T06:41:21.300Z,34.83
2022-10-07T06:43:48.513Z,34.50
2022-10-07T06:46:17.531Z,34.00
2022-10-07T06:48:46.564Z,33.95
2022-10-07T06:51:24.134Z,34.10
2022-10-07T06:53:54.504Z,33.63
2022-10-07T06:56:21.289Z,35.08
2022-10-07T06:58:49.873Z,35.10
2022-10-07T07:01:16.923Z,34.33
2022-10-07T07:03:43.624Z,34.35
2022-10-07T07:06:14.946Z,36.53
2022-10-07T07:08:42.599Z,34.97
2022-10-07T07:11:30.763Z,36.17
2022-10-07T07:13:58.455Z,30.92
2022-10-07T07:16:25.481Z,36.28
2022-10-07T07:18:53.850Z,38.03
2022-10-07T07:21:21.690Z,36.58
2022-10-07T07:23:49.036Z,37.08
2022-10-07T07:26:15.587Z,37.33
2022-10-07T07:28:42.140Z,38.92
2022-10-07T07:31:10.488Z,36.05
2022-10-07T07:33:40.394Z,34.00
2022-10-07T07:36:16.404Z,36.03
2022-10-07T07:38:43.839Z,37.78
2022-10-07T07:41:10.997Z,37.83
2022-10-07T07:43:38.024Z,34.95
2022-10-07T07:46:04.981Z,34.65
2022-10-07T07:48:31.693Z,34.40
2022-10-07T07:50:58.391Z,33.70
2022-10-07T07:53:24.967Z,34.13
2022-10-07T07:55:56.180Z,34.25
2022-10-07T07:58:24.337Z,34.90
2022-10-07T08:01:01.403Z,36.05
2022-10-07T08:03:28.203Z,34.50
2022-10-07T08:05:55.311Z,33.95
2022-10-07T08:08:22.206Z,34.55
2022-10-07T08:10:51.936Z,33.67
2022-10-07T08:13:19.439Z,34.78
2022-10-07T08:15:46.246Z,35.00
2022-10-07T08:18:12.807Z,36.70
2022-10-07T08:20:39.511Z,36.80
2022-10-07T08:23:06.855Z,36.17
2022-10-07T08:25:33.611Z,34.20
2022-10-07T08:28:01.244Z,35.78
2022-10-07T08:30:28.802Z,34.30
2022-10-07T08:33:00.410Z,34.33
2022-10-07T08:35:28.281Z,34.28
2022-10-07T08:37:55.077Z,34.53
2022-10-07T08:40:22.264Z,39.03
2022-10-07T08:42:48.832Z,40.50
2022-10-07T08:45:27.563Z,39.58
2022-10-07T08:47:54.649Z,40.67
2022-10-07T08:50:43.264Z,36.90
2022-10-07T08:53:17.779Z,35.45
2022-10-07T08:55:56.789Z,34.88
2022-10-07T08:58:36.920Z,33.60
2022-10-07T09:01:27.240Z,33.80
2022-10-07T09:04:20.527Z,36.97
2022-10-07T09:07:09.655Z,37.53
2022-10-07T09:09:43.124Z,34.55
2022-10-07T09:12:25.117Z,31.67
2022-10-07T09:14:57.470Z,31.25
2022-10-07T09:17:35.927Z,33.90
2022-10-07T09:20:13.560Z,35.03
2022-10-07T09:22:42.816Z,30.85
2022-10-07T09:25:12.816Z,32.25
2022-10-07T09:27:39.669Z,35.05
2022-10-07T09:30:07.232Z,31.20
2022-10-07T09:32:39.717Z,29.85
2022-10-07T09:35:06.628Z,31.58
2022-10-07T09:37:33.945Z,33.92
2022-10-07T09:40:22.449Z,33.08
2022-10-07T09:42:49.765Z,31.67
2022-10-07T09:45:27.169Z,31.48
2022-10-07T09:47:57.594Z,32.30
2022-10-07T09:50:38.843Z,31.80
2022-10-07T09:53:33.630Z,27.92
2022-10-07T09:56:00.419Z,26.67
2022-10-07T09:58:29.662Z,25.40
2022-10-07T10:01:01.028Z,20.98
2022-10-07T10:03:34.259Z,22.50
2022-10-07T10:06:03.579Z,23.00
2022-10-07T10:08:32.013Z,20.25
2022-10-07T10:11:03.966Z,18.40
2022-10-07T10:13:39.450Z,17.27
2022-10-07T10:16:29.625Z,16.92
2022-10-07T10:18:59.028Z,18.08
2022-10-07T10:21:32.624Z,15.68
2022-10-07T10:24:05.975Z,18.42
2022-10-07T10:26:34.114Z,16.80
2022-10-07T10:29:07.198Z,15.25
2022-10-07T10:32:01.590Z,17.20
2022-10-07T10:34:57.410Z,15.45
2022-10-07T10:37:26.434Z,14.35
2022-10-07T10:40:12.632Z,11.43
2022-10-07T10:43:08.216Z,10.57
2022-10-07T10:45:43.179Z,12.00
2022-10-07T10:48:31.291Z,12.55
2022-10-07T10:51:07.914Z,10.57
2022-10-07T10:54:05.131Z,12.80
2022-10-07T10:56:54.053Z,12.15
2022-10-07T10:59:45.753Z,11.35
2022-10-07T11:02:49.214Z,11.32
2022-10-07T11:05:18.820Z,11.35
2022-10-07T11:08:08.085Z,11.48
2022-10-07T11:10:50.678Z,10.73
2022-10-07T11:13:48.442Z,11.52
2022-10-07T11:16:43.253Z,10.93
2022-10-07T11:19:37.914Z,8.13
2022-10-07T11:22:17.575Z,10.27
2022-10-07T11:24:57.029Z,8.88
2022-10-07T11:27:28.691Z,10.02
2022-10-07T11:30:03.462Z,9.18
2022-10-07T11:32:45.496Z,9.65
2022-10-07T11:35:23.871Z,10.85
2022-10-07T11:37:54.724Z,10.68
2022-10-07T11:40:25.692Z,10.05
2022-10-07T11:42:57.654Z,10.45
2022-10-07T11:45:28.891Z,11.35
2022-10-07T11:48:04.551Z,8.88
2022-10-07T11:50:41.320Z,9.00
2022-10-07T11:53:15.479Z,9.52
2022-10-07T11:55:49.422Z,9.13
2022-10-07T11:58:29.552Z,9.13
2022-10-07T12:01:30.680Z,8.68
2022-10-07T12:04:20.002Z,8.30
2022-10-07T12:07:24.236Z,8.32
2022-10-07T12:09:54.390Z,6.35
2022-10-07T12:12:24.212Z,6.35
2022-10-07T12:15:01.947Z,6.72
2022-10-07T12:17:30.373Z,7.50
2022-10-07T12:20:37.531Z,6.50
2022-10-07T12:23:22.605Z,5.90
2022-10-07T12:25:53.468Z,7.22
2022-10-07T12:28:26.224Z,7.40
2022-10-07T12:30:55.487Z,7.38
2022-10-07T12:33:43.004Z,7.20
2022-10-07T12:36:18.680Z,6.43
2022-10-07T12:39:08.039Z,6.78
2022-10-07T12:41:39.775Z,6.55
2022-10-07T12:44:36.176Z,6.63
2022-10-07T12:47:17.675Z,6.80
2022-10-07T12:49:51.661Z,6.72
2022-10-07T12:52:46.609Z,6.03
2022-10-07T12:55:29.886Z,6.82
2022-10-07T12:58:16.202Z,6.47
2022-10-07T13:01:06.279Z,6.40
2022-10-07T13:03:44.979Z,6.97
2022-10-07T13:06:49.159Z,5.55
2022-10-07T13:09:37.472Z,7.22
2022-10-07T13:12:26.199Z,6.82
2022-10-07T13:15:23.195Z,8.05
2022-10-07T13:18:18.483Z,4.63
2022-10-07T13:20:53.951Z,5.47
2022-10-07T13:23:26.811Z,5.35
2022-10-07T13:25:56.058Z,4.95
2022-10-07T13:28:25.714Z,5.80
2022-10-07T13:30:53.274Z,5.68
2022-10-07T13:33:31.295Z,5.53
2022-10-07T13:36:21.190Z,5.13
2022-10-07T13:38:50.503Z,5.43
2022-10-07T13:41:29.707Z,4.93
2022-10-07T13:44:00.613Z,6.18
2022-10-07T13:46:30.138Z,4.78
2022-10-07T13:48:58.370Z,5.20
2022-10-07T13:51:39.922Z,4.82
2022-10-07T13:54:18.173Z,5.20
2022-10-07T13:56:47.866Z,5.03
2022-10-07T13:59:19.213Z,5.43
2022-10-07T14:01:49.596Z,5.22
2022-10-07T14:04:20.365Z,4.72
2022-10-07T14:06:55.445Z,4.65
2022-10-07T14:09:33.060Z,4.65
2022-10-07T14:12:07.293Z,4.25
2022-10-07T14:14:37.921Z,5.03
2022-10-07T14:17:11.720Z,4.60
2022-10-07T14:19:39.316Z,4.25
2022-10-07T14:22:18.090Z,4.50
2022-10-07T14:24:53.787Z,4.47
2022-10-07T14:28:03.131Z,4.05
2022-10-07T14:31:00.130Z,4.00
2022-10-07T14:33:53.775Z,3.72
2022-10-07T14:36:22.332Z,3.47
2022-10-07T14:38:51.037Z,4.38
2022-10-07T14:41:20.222Z,4.38
2022-10-07T14:43:48.672Z,4.15
2022-10-07T14:46:22.643Z,3.72
2022-10-07T14:48:50.452Z,3.60
2022-10-07T14:51:20.282Z,3.72
2022-10-07T14:53:52.158Z,4.53
2022-10-07T14:56:29.213Z,4.13
2022-10-07T14:58:56.404Z,3.58
2022-10-07T15:01:24.003Z,3.15
2022-10-07T15:03:50.692Z,3.53
2022-10-07T15:06:18.870Z,3.95
2022-10-07T15:08:47.128Z,3.72
2022-10-07T15:11:15.568Z,3.63
2022-10-07T15:13:43.379Z,3.60
2022-10-07T15:16:19.452Z,3.45
2022-10-07T15:18:51.903Z,3.40
2022-10-07T15:21:19.994Z,4.30
2022-10-07T15:23:52.048Z,3.47
2022-10-07T15:28:50.413Z,3.40
2022-10-07T15:31:17.817Z,3.80
2022-10-07T15:33:44.588Z,4.32
2022-10-07T15:36:13.216Z,4.13
2022-10-07T15:38:40.807Z,4.45
2022-10-07T15:41:07.742Z,3.65
2022-10-07T15:43:35.405Z,4.25
2022-10-07T15:46:03.015Z,3.60
2022-10-07T15:48:29.887Z,3.60
2022-10-07T15:50:57.652Z,3.47
2022-10-07T15:53:25.655Z,3.92
2022-10-07T15:55:57.585Z,3.85
2022-10-07T15:58:30.365Z,4.07
2022-10-07T16:01:02.444Z,4.50
2022-10-07T16:06:01.974Z,4.93
2022-10-07T16:08:31.162Z,4.57
2022-10-07T16:11:02.392Z,4.07
2022-10-07T16:13:32.228Z,3.67
2022-10-07T16:16:06.680Z,4.47
2022-10-07T16:18:36.746Z,3.65
2022-10-07T16:21:08.673Z,4.40
2022-10-07T16:23:37.455Z,3.88
2022-10-07T16:26:04.821Z,6.40
2022-10-07T16:28:51.291Z,5.20
2022-10-07T16:31:20.574Z,4.00
2022-10-07T16:33:51.601Z,4.10
2022-10-07T16:36:20.788Z,4.00
2022-10-07T16:38:47.847Z,3.80
2022-10-07T16:41:14.667Z,4.05
2022-10-07T16:43:41.415Z,4.00
2022-10-07T16:46:11.697Z,4.15
2022-10-07T16:48:40.662Z,3.88
2022-10-07T16:51:11.894Z,4.80
2022-10-07T16:53:40.186Z,4.47
2022-10-07T16:56:07.418Z,5.60
2022-10-07T16:58:34.681Z,4.45
2022-10-07T17:03:37.929Z,4.65
2022-10-07T17:06:04.679Z,5.15
2022-10-07T17:08:39.043Z,4.93
2022-10-07T17:11:09.500Z,4.82
2022-10-07T17:13:38.086Z,5.53
2022-10-07T17:16:05.974Z,6.15
2022-10-07T17:18:34.278Z,6.50
2022-10-07T17:21:01.113Z,6.47
2022-10-07T17:23:30.413Z,6.50
2022-10-07T17:25:57.129Z,6.20
2022-10-07T17:28:28.531Z,5.95
2022-10-07T17:30:55.427Z,6.32
2022-10-07T17:33:23.106Z,5.88
2022-10-07T17:35:49.884Z,5.45
2022-10-07T17:38:16.541Z,5.35
2022-10-07T17:40:43.826Z,5.95
2022-10-07T17:43:14.024Z,6.07
2022-10-07T17:45:41.887Z,6.22
2022-10-07T17:48:09.340Z,6.20
2022-10-07T17:50:39.035Z,6.10
2022-10-07T17:53:07.577Z,6.15
2022-10-07T17:55:34.487Z,6.78
2022-10-07T17:58:01.074Z,6.50
2022-10-07T18:00:27.650Z,6.47
2022-10-07T18:02:54.285Z,6.30
2022-10-07T18:05:20.934Z,6.68
2022-10-07T18:07:48.561Z,6.00
2022-10-07T18:10:15.438Z,6.25
2022-10-07T18:13:00.550Z,6.45
2022-10-07T18:15:27.109Z,6.75
2022-10-07T18:17:54.537Z,6.53
2022-10-07T18:20:23.062Z,6.93
2022-10-07T18:22:56.797Z,6.68
2022-10-07T18:25:24.505Z,6.45
2022-10-07T18:27:51.327Z,6.13
2022-10-07T18:30:17.900Z,6.15
2022-10-07T18:32:44.629Z,6.50
2022-10-07T18:35:11.318Z,5.97
2022-10-07T18:37:37.990Z,5.88
2022-10-07T18:40:05.291Z,5.97
2022-10-07T18:42:31.883Z,6.47
2022-10-07T18:44:58.566Z,6.28
2022-10-07T18:47:25.270Z,7.13
2022-10-07T18:49:51.960Z,6.60
2022-10-07T18:52:18.598Z,6.55
2022-10-07T18:54:45.242Z,6.75
2022-10-07T18:57:12.005Z,5.63
2022-10-07T18:59:38.598Z,6.55
2022-10-07T19:02:05.277Z,6.20
2022-10-07T19:04:33.065Z,7.05
2022-10-07T19:06:59.801Z,6.07
2022-10-07T19:09:26.543Z,6.68
2022-10-07T19:11:53.294Z,6.35
2022-10-07T19:14:20.359Z,6.57
2022-10-07T19:16:51.353Z,6.78
2022-10-07T19:19:23.002Z,6.97
2022-10-07T19:21:52.974Z,6.70
2022-10-07T19:24:20.962Z,6.45
2022-10-07T19:26:50.123Z,6.30
2022-10-07T19:29:18.009Z,5.88
2022-10-07T19:31:48.718Z,6.47
2022-10-07T19:34:21.934Z,6.28
2022-10-07T19:36:49.986Z,6.30
2022-10-07T19:39:21.621Z,6.85
2022-10-07T19:41:51.093Z,6.50
2022-10-07T19:44:19.370Z,6.40
2022-10-07T19:46:45.958Z,6.97
2022-10-07T19:49:12.662Z,6.65
2022-10-07T19:51:40.474Z,7.55
2022-10-07T19:54:10.876Z,6.85
2022-10-07T19:56:39.470Z,6.85
2022-10-07T19:59:11.617Z,7.28
2022-10-07T20:04:09.055Z,6.38
2022-10-07T20:06:38.824Z,6.90
2022-10-07T20:09:07.243Z,7.40
2022-10-07T20:11:34.731Z,8.00
2022-10-07T20:14:03.025Z,7.75
2022-10-07T20:16:31.342Z,7.93
2022-10-07T20:19:05.810Z,7.25
2022-10-07T20:21:35.698Z,8.38
2022-10-07T20:24:04.284Z,8.43
2022-10-07T20:26:33.671Z,8.18
2022-10-07T20:29:01.547Z,7.90
2022-10-07T20:31:31.291Z,7.95
2022-10-07T20:34:00.248Z,8.20
2022-10-07T20:36:32.636Z,8.00
2022-10-07T20:39:26.788Z,8.45
2022-10-07T20:42:12.399Z,8.13
2022-10-07T20:44:39.670Z,8.23
2022-10-07T20:47:08.930Z,9.35
2022-10-07T20:49:37.486Z,10.35
2022-10-07T20:52:07.041Z,9.88
2022-10-07T20:54:34.137Z,10.07
2022-10-07T20:57:00.878Z,9.07
2022-10-07T20:59:29.396Z,10.02
2022-10-07T21:01:57.035Z,8.90
2022-10-07T21:04:25.965Z,8.95
2022-10-07T21:06:53.416Z,8.48
2022-10-07T21:09:20.525Z,8.52
2022-10-07T21:11:47.826Z,8.48
2022-10-07T21:14:15.521Z,8.82
2022-10-07T21:16:42.356Z,8.32
2022-10-07T21:19:09.496Z,8.07
2022-10-07T21:21:36.222Z,7.95
2022-10-07T21:24:02.858Z,7.95
2022-10-07T21:26:29.472Z,8.52
2022-10-07T21:28:56.099Z,8.25
2022-10-07T21:31:23.864Z,8.05
2022-10-07T21:33:51.912Z,8.63
2022-10-07T21:36:24.281Z,8.18
2022-10-07T21:38:58.889Z,8.02
2022-10-07T21:41:31.282Z,8.20
2022-10-07T21:43:58.484Z,8.00
2022-10-07T21:46:27.095Z,8.30
2022-10-07T21:48:55.172Z,8.48
2022-10-07T21:51:22.607Z,8.20
2022-10-07T21:53:53.565Z,7.80
2022-10-07T21:56:21.224Z,8.43
2022-10-07T21:58:49.560Z,8.75
2022-10-07T22:01:18.173Z,8.50
2022-10-07T22:03:45.536Z,8.98
2022-10-07T22:06:15.046Z,7.97
2022-10-07T22:08:43.718Z,9.35
2022-10-07T22:11:12.221Z,7.55
2022-10-07T22:13:43.668Z,7.88
2022-10-07T22:16:15.736Z,8.73
2022-10-07T22:18:46.265Z,8.52
2022-10-07T22:21:22.277Z,8.25
2022-10-07T22:23:50.692Z,8.30
2022-10-07T22:26:18.913Z,7.70
2022-10-07T22:28:49.751Z,9.32
2022-10-07T22:31:16.831Z,9.50
2022-10-07T22:33:45.160Z,8.60
2022-10-07T22:36:13.432Z,9.40
2022-10-07T22:38:40.916Z,8.65
2022-10-07T22:41:09.971Z,8.63
2022-10-07T22:43:37.662Z,8.80
2022-10-07T22:46:05.655Z,9.18
2022-10-07T22:48:36.032Z,10.13
2022-10-07T22:51:08.391Z,10.15
2022-10-07T22:53:37.016Z,9.95
2022-10-07T22:56:11.624Z,8.80
2022-10-07T22:58:39.918Z,10.27
2022-10-07T23:01:09.235Z,9.68
2022-10-07T23:03:38.637Z,9.57
2022-10-07T23:06:07.266Z,8.93
2022-10-07T23:08:35.234Z,8.93
2022-10-07T23:11:03.435Z,9.52
2022-10-07T23:13:33.286Z,9.10
2022-10-07T23:16:06.028Z,9.50
2022-10-07T23:18:33.270Z,9.27
2022-10-07T23:21:10.142Z,8.88
2022-10-07T23:23:38.513Z,9.38
2022-10-07T23:26:09.185Z,9.40
2022-10-07T23:28:36.218Z,9.05
2022-10-07T23:31:19.886Z,10.13
2022-10-07T23:33:48.848Z,9.20
2022-10-07T23:36:17.122Z,9.07
2022-10-07T23:38:47.487Z,9.25
2022-10-07T23:41:17.137Z,10.23
2022-10-07T23:43:43.916Z,9.73
2022-10-07T23:46:14.108Z,9.18
2022-10-07T23:48:44.272Z,9.38
2022-10-07T23:51:12.942Z,9.48
2022-10-07T23:53:39.793Z,9.90
2022-10-07T23:56:07.917Z,9.07
2022-10-07T23:58:36.656Z,10.20
